Zele, Belgium
Current Conditions -  °F | °C
As of 11:50 PM on Tuesday 21 Oct 2014 (Local Time) from EBAW Reporting Station
Few Clouds Few Clouds  
Wind Chill: 52°   Ceiling: Unl
Heat Index: 52°   Visibility: 6mi
Dew Point: 39°   Wind: 24mph
Humidity: 62%   Direction: 290°WNW
Pressure: 29.88"   Gusts: NA
Location:  51.07°N, 4.04°E
Report Text: EBAW 212150Z AUTO 29021KT 9999 FEW048/// 11/04 Q1012
Loading
Personal Weather Stations






























Interactive Weather Map
Tropical Storm Tracking
New forecast layout! Learn more

10-Day Weather Forecast

Advertisements
Track Severe Weather on mobile